Awosting, New Jersey
Current Conditions -  °F | °C
As of 3:53 AM on Sunday 23 Nov 2014 (Local Time) from KFWN Reporting Station
Overcast Overcast  
Wind Chill:   Ceiling: 10000
Heat Index:   Visibility: 10mi
Dew Point: -6°   Wind: 7mph
Humidity: 49%   Direction: 210°SSW
Pressure: 30.15"   Gusts: NA
Location:  41.1652°N, 74.3769°W
Report Text: KFWN 230853Z AUTO 21006KT 10SM FEW080 OVC100 04/M06 A3015 RMK AO2 SLP212 T00391061 56004
Loading
Personal Weather Stations






























Interactive Weather Map New forecast layout! Learn more

10-Day Weather Forecast

Advertisements
Track Severe Weather on mobile